createdAt,value
2017-07-11T00:01:15.511Z,15.20
2017-07-11T00:03:43.125Z,15.40
2017-07-11T00:06:11.647Z,15.40
2017-07-11T00:17:19.238Z,15.40
2017-07-11T00:19:47.618Z,15.40
2017-07-11T00:22:15.187Z,15.40
2017-07-11T00:24:42.926Z,15.40
2017-07-11T00:27:10.545Z,15.40
2017-07-11T00:29:38.107Z,15.30
2017-07-11T00:32:05.866Z,15.10
2017-07-11T00:34:33.425Z,15.00
2017-07-11T00:37:00.986Z,15.10
2017-07-11T00:39:28.734Z,15.30
2017-07-11T00:41:57.068Z,15.20
2017-07-11T00:44:24.644Z,15.20
2017-07-11T00:46:52.273Z,15.30
2017-07-11T00:49:19.829Z,15.50
2017-07-11T00:51:47.409Z,15.50
2017-07-11T00:54:15.114Z,15.50
2017-07-11T00:56:42.673Z,15.60
2017-07-11T00:59:10.237Z,15.60
2017-07-11T01:01:37.998Z,15.70
2017-07-11T01:04:05.556Z,15.70
2017-07-11T01:06:33.139Z,15.80
2017-07-11T01:09:00.883Z,16.00
2017-07-11T01:11:28.465Z,16.00
2017-07-11T01:13:56.036Z,16.10
2017-07-11T01:16:23.788Z,16.10
2017-07-11T01:18:51.353Z,16.20
2017-07-11T01:21:19.821Z,16.20
2017-07-11T01:23:47.553Z,16.30
2017-07-11T01:26:15.122Z,16.30
2017-07-11T01:28:42.678Z,16.40
2017-07-11T01:31:10.369Z,16.40
2017-07-11T01:33:37.928Z,16.40
2017-07-11T01:36:05.504Z,16.40
2017-07-11T01:38:33.151Z,16.50
2017-07-11T01:41:00.711Z,16.50
2017-07-11T01:43:28.280Z,16.50
2017-07-11T01:45:55.990Z,16.50
2017-07-11T01:48:23.560Z,16.50
2017-07-11T01:50:51.889Z,16.50
2017-07-11T01:53:19.512Z,16.50
2017-07-11T01:55:47.073Z,16.50
2017-07-11T01:58:14.634Z,16.50
2017-07-11T02:00:42.389Z,16.60
2017-07-11T02:03:09.953Z,16.50
2017-07-11T02:05:37.521Z,16.50
2017-07-11T02:08:05.156Z,16.50
2017-07-11T02:10:33.483Z,16.50
2017-07-11T02:13:01.369Z,16.50
2017-07-11T02:15:28.956Z,16.60
2017-07-11T02:17:57.296Z,16.60
2017-07-11T02:20:24.856Z,16.60
2017-07-11T02:22:52.843Z,16.70
2017-07-11T02:25:20.421Z,16.70
2017-07-11T02:27:48.760Z,16.70
2017-07-11T02:30:16.504Z,16.70
2017-07-11T02:32:44.091Z,16.70
2017-07-11T02:35:11.661Z,16.70
2017-07-11T02:37:39.279Z,16.70
2017-07-11T02:40:06.862Z,16.70
2017-07-11T02:42:34.428Z,16.70
2017-07-11T02:45:02.049Z,16.70
2017-07-11T02:47:29.609Z,16.70
2017-07-11T02:49:57.170Z,16.70
2017-07-11T02:52:24.909Z,16.70
2017-07-11T02:54:52.480Z,16.70
2017-07-11T02:57:20.047Z,16.70
2017-07-11T02:59:48.521Z,16.70
2017-07-11T03:02:16.096Z,16.70
2017-07-11T03:04:43.675Z,16.70
2017-07-11T03:07:11.375Z,16.60
2017-07-11T03:09:39.868Z,16.70
2017-07-11T03:12:07.442Z,16.80
2017-07-11T03:14:35.209Z,16.80
2017-07-11T03:17:02.781Z,16.80
2017-07-11T03:19:30.365Z,16.80
2017-07-11T03:21:58.110Z,16.90
2017-07-11T03:24:25.668Z,16.90
2017-07-11T03:26:53.232Z,16.80
2017-07-11T03:29:20.984Z,16.80
2017-07-11T03:31:48.648Z,16.80
2017-07-11T03:34:16.216Z,16.80
2017-07-11T03:36:43.987Z,16.80
2017-07-11T03:39:11.557Z,16.90
2017-07-11T03:41:39.165Z,17.00
2017-07-11T03:44:07.686Z,17.00
2017-07-11T03:46:36.157Z,17.00
2017-07-11T03:49:04.645Z,17.00
2017-07-11T03:51:32.392Z,17.10
2017-07-11T03:53:59.957Z,17.00
2017-07-11T03:56:27.550Z,17.00
2017-07-11T03:58:55.167Z,17.00
2017-07-11T04:01:22.742Z,17.00
2017-07-11T04:03:50.302Z,17.00
2017-07-11T04:06:17.941Z,17.00
2017-07-11T04:08:45.509Z,17.00
2017-07-11T04:11:13.085Z,17.10
2017-07-11T04:13:40.852Z,17.10
2017-07-11T04:16:08.449Z,17.10
2017-07-11T04:18:36.043Z,17.10
2017-07-11T04:21:03.800Z,17.10
2017-07-11T04:23:32.184Z,17.10
2017-07-11T04:25:59.755Z,17.10
2017-07-11T04:28:27.680Z,17.10
2017-07-11T04:30:56.040Z,17.00
2017-07-11T04:33:23.599Z,17.00
2017-07-11T04:35:51.380Z,17.10
2017-07-11T04:38:18.940Z,17.10
2017-07-11T04:40:46.898Z,17.10
2017-07-11T04:43:14.509Z,17.10
2017-07-11T04:45:42.077Z,17.00
2017-07-11T04:48:09.646Z,17.10
2017-07-11T04:50:37.492Z,17.10
2017-07-11T04:53:05.073Z,17.10
2017-07-11T04:55:32.664Z,17.20
2017-07-11T04:58:00.294Z,17.30
2017-07-11T05:00:27.867Z,17.40
2017-07-11T05:02:56.220Z,17.50
2017-07-11T05:05:23.910Z,17.50
2017-07-11T05:07:51.484Z,17.50
2017-07-11T05:10:19.977Z,17.50
2017-07-11T05:12:48.452Z,17.70
2017-07-11T05:15:16.018Z,17.60
2017-07-11T05:17:43.581Z,17.70
2017-07-11T05:20:11.345Z,17.70
2017-07-11T05:22:39.682Z,17.70
2017-07-11T05:25:07.315Z,17.70
2017-07-11T05:27:35.455Z,17.70
2017-07-11T05:30:03.080Z,17.70
2017-07-11T05:32:30.639Z,17.70
2017-07-11T05:34:58.542Z,17.80
2017-07-11T05:37:26.160Z,17.80
2017-07-11T05:39:54.823Z,17.80
2017-07-11T05:42:22.430Z,17.90
2017-07-11T05:44:50.000Z,17.90
2017-07-11T05:47:18.326Z,17.90
2017-07-11T05:49:45.937Z,17.90
2017-07-11T05:52:13.500Z,17.80
2017-07-11T05:54:41.843Z,17.90
2017-07-11T05:57:09.559Z,17.90
2017-07-11T05:59:37.167Z,17.90
2017-07-11T06:02:04.730Z,17.90
2017-07-11T06:04:32.638Z,18.00
2017-07-11T06:07:00.959Z,18.10
2017-07-11T06:09:28.520Z,18.10
2017-07-11T06:11:56.285Z,18.10
2017-07-11T06:14:23.860Z,18.20
2017-07-11T06:16:51.428Z,18.20
2017-07-11T06:19:19.140Z,18.10
2017-07-11T06:21:46.716Z,18.20
2017-07-11T06:24:14.282Z,18.20
2017-07-11T06:26:41.993Z,18.20
2017-07-11T06:29:10.325Z,18.30
2017-07-11T06:31:37.924Z,18.30
2017-07-11T06:34:05.622Z,18.40
2017-07-11T06:36:33.175Z,18.40
2017-07-11T06:39:00.732Z,18.40
2017-07-11T06:41:28.352Z,18.40
2017-07-11T06:43:55.908Z,18.40
2017-07-11T06:46:23.472Z,18.40
2017-07-11T06:48:51.369Z,18.40
2017-07-11T06:51:18.954Z,18.50
2017-07-11T06:53:46.517Z,18.50
2017-07-11T06:56:14.131Z,18.50
2017-07-11T06:58:42.459Z,18.50
2017-07-11T07:01:10.031Z,18.50
2017-07-11T07:03:37.928Z,18.50
2017-07-11T07:06:05.501Z,18.50
2017-07-11T07:08:33.819Z,18.60
2017-07-11T07:11:01.860Z,18.60
2017-07-11T07:13:29.536Z,18.70
2017-07-11T07:15:57.111Z,18.80
2017-07-11T07:18:24.735Z,18.80
2017-07-11T07:20:53.071Z,18.90
2017-07-11T07:23:20.648Z,18.90
2017-07-11T07:25:48.359Z,18.90
2017-07-11T07:28:15.926Z,18.90
2017-07-11T07:30:43.480Z,19.00
2017-07-11T07:33:11.164Z,19.10
2017-07-11T07:35:38.733Z,19.00
2017-07-11T07:38:06.309Z,19.00
2017-07-11T07:40:34.009Z,19.00
2017-07-11T07:43:01.581Z,19.10
2017-07-11T07:45:29.162Z,19.20
2017-07-11T07:47:56.871Z,19.30
2017-07-11T07:50:24.461Z,19.30
2017-07-11T07:52:52.023Z,19.50
2017-07-11T07:55:19.727Z,19.60
2017-07-11T07:57:47.419Z,19.70
2017-07-11T08:00:15.769Z,20.00
2017-07-11T08:02:43.490Z,20.00
2017-07-11T08:05:11.060Z,20.10
2017-07-11T08:07:38.677Z,20.10
2017-07-11T08:10:07.365Z,20.20
2017-07-11T08:12:35.693Z,20.30
2017-07-11T08:15:04.892Z,20.30
2017-07-11T08:17:32.593Z,20.30
2017-07-11T08:20:00.923Z,20.60
2017-07-11T08:22:30.362Z,20.60
2017-07-11T08:24:58.240Z,20.70
2017-07-11T08:27:25.800Z,20.90
2017-07-11T08:29:53.360Z,20.90
2017-07-11T08:32:20.972Z,21.00
2017-07-11T08:34:48.552Z,20.90
2017-07-11T08:37:16.122Z,20.90
2017-07-11T08:39:46.446Z,20.90
2017-07-11T08:42:20.776Z,20.80
2017-07-11T08:44:51.334Z,20.80
2017-07-11T08:47:19.065Z,20.80
2017-07-11T08:49:46.633Z,20.90
2017-07-11T08:52:14.694Z,21.00
2017-07-11T08:54:42.253Z,21.10
2017-07-11T08:57:09.869Z,21.20
2017-07-11T08:59:37.799Z,21.30
2017-07-11T09:02:06.135Z,21.50
2017-07-11T09:04:33.732Z,21.50
2017-07-11T09:07:01.347Z,21.70
2017-07-11T09:09:28.910Z,21.80
2017-07-11T09:11:56.512Z,21.80
2017-07-11T09:14:24.272Z,22.00
2017-07-11T09:16:51.842Z,22.00
2017-07-11T09:19:19.432Z,22.00
2017-07-11T09:21:47.040Z,22.10
2017-07-11T09:24:14.605Z,22.20
2017-07-11T09:26:42.171Z,22.30
2017-07-11T09:29:09.790Z,22.40
2017-07-11T09:31:37.728Z,22.50
2017-07-11T09:34:05.284Z,22.60
2017-07-11T09:36:32.977Z,22.60
2017-07-11T09:39:00.557Z,22.70
2017-07-11T09:41:28.117Z,22.70
2017-07-11T09:43:55.893Z,22.70
2017-07-11T09:46:23.457Z,22.70
2017-07-11T09:48:51.031Z,22.90
2017-07-11T09:51:19.595Z,23.20
2017-07-11T09:53:47.165Z,23.20
2017-07-11T09:56:15.493Z,23.40
2017-07-11T09:58:43.414Z,23.40
2017-07-11T10:01:11.753Z,23.50
2017-07-11T10:03:39.391Z,23.40
2017-07-11T10:06:07.199Z,23.40
2017-07-11T10:08:34.764Z,23.30
2017-07-11T10:11:02.357Z,23.30
2017-07-11T10:13:30.138Z,23.30
2017-07-11T10:15:57.704Z,23.40
2017-07-11T10:18:25.276Z,23.40
2017-07-11T10:20:53.124Z,23.40
2017-07-11T10:23:20.688Z,23.20
2017-07-11T10:25:48.363Z,23.20
2017-07-11T10:28:16.172Z,23.10
2017-07-11T10:30:44.495Z,23.10
2017-07-11T10:33:12.054Z,23.10
2017-07-11T10:35:39.840Z,23.20
2017-07-11T10:38:07.399Z,23.30
2017-07-11T10:40:34.967Z,23.50
2017-07-11T10:43:02.858Z,23.60
2017-07-11T10:45:31.185Z,23.70
2017-07-11T10:47:58.739Z,23.70
2017-07-11T10:50:26.526Z,23.80
2017-07-11T10:52:54.338Z,23.70
2017-07-11T10:55:21.904Z,23.70
2017-07-11T10:57:49.616Z,23.80
2017-07-11T11:00:17.185Z,23.80
2017-07-11T11:02:44.747Z,23.80
2017-07-11T11:05:12.440Z,23.60
2017-07-11T11:07:40.003Z,23.40
2017-07-11T11:10:07.563Z,23.20
2017-07-11T11:12:35.254Z,23.00
2017-07-11T11:15:02.828Z,22.90
2017-07-11T11:17:30.389Z,22.90
2017-07-11T11:19:58.284Z,22.80
2017-07-11T11:22:26.627Z,22.80
2017-07-11T11:24:54.189Z,22.70
2017-07-11T11:27:22.088Z,22.80
2017-07-11T11:29:49.642Z,23.00
2017-07-11T11:32:17.215Z,23.20
2017-07-11T11:34:44.971Z,23.30
2017-07-11T11:37:12.535Z,23.40
2017-07-11T11:39:40.116Z,23.50
2017-07-11T11:42:07.797Z,23.70
2017-07-11T11:44:35.368Z,23.60
2017-07-11T11:47:02.929Z,23.80
2017-07-11T11:49:30.724Z,24.00
2017-07-11T11:51:59.060Z,24.10
2017-07-11T11:54:26.627Z,24.10
2017-07-11T11:56:54.431Z,24.00
2017-07-11T11:59:21.992Z,23.40
2017-07-11T12:01:49.552Z,22.70
2017-07-11T12:04:17.305Z,22.20
2017-07-11T12:06:44.860Z,21.80
2017-07-11T12:09:12.425Z,21.50
2017-07-11T12:11:40.032Z,21.50
2017-07-11T12:14:07.866Z,21.40
2017-07-11T12:16:35.437Z,21.40
2017-07-11T12:19:03.491Z,21.50
2017-07-11T12:21:31.052Z,21.60
2017-07-11T12:23:59.541Z,21.70
2017-07-11T12:26:28.218Z,21.90
2017-07-11T12:28:55.792Z,21.90
2017-07-11T12:31:23.375Z,22.20
2017-07-11T12:33:51.070Z,22.50
2017-07-11T12:36:18.712Z,22.60
2017-07-11T12:38:46.368Z,22.60
2017-07-11T12:41:14.091Z,22.70
2017-07-11T12:43:42.436Z,22.90
2017-07-11T12:46:10.068Z,22.90
2017-07-11T12:48:37.989Z,23.10
2017-07-11T12:51:05.557Z,23.10
2017-07-11T12:53:33.897Z,23.20
2017-07-11T12:56:01.801Z,23.30
2017-07-11T12:58:29.367Z,23.40
2017-07-11T13:00:57.936Z,23.60
2017-07-11T13:03:25.809Z,23.60
2017-07-11T13:05:53.438Z,23.60
2017-07-11T13:08:21.188Z,23.30
2017-07-11T13:10:48.898Z,23.00
2017-07-11T13:13:17.224Z,22.20
2017-07-11T13:15:44.790Z,22.10
2017-07-11T13:18:14.681Z,21.70
2017-07-11T13:20:42.241Z,21.50
2017-07-11T13:23:09.994Z,21.30
2017-07-11T13:25:38.486Z,21.00
2017-07-11T13:28:06.080Z,20.80
2017-07-11T13:30:33.640Z,20.80
2017-07-11T13:33:01.332Z,20.90
2017-07-11T13:35:29.667Z,21.00
2017-07-11T13:37:57.230Z,21.00
2017-07-11T13:40:25.021Z,20.80
2017-07-11T13:42:52.580Z,20.70
2017-07-11T13:45:20.140Z,20.60
2017-07-11T13:47:48.319Z,20.30
2017-07-11T13:50:16.674Z,20.20
2017-07-11T13:52:44.237Z,20.20
2017-07-11T13:55:11.995Z,20.20
2017-07-11T13:57:39.662Z,20.10
2017-07-11T14:00:07.342Z,20.00
2017-07-11T14:02:35.211Z,19.80
2017-07-11T14:05:03.561Z,19.60
2017-07-11T14:07:32.696Z,19.60
2017-07-11T14:10:01.360Z,19.50
2017-07-11T14:12:28.928Z,19.50
2017-07-11T14:14:57.261Z,19.60
2017-07-11T14:17:24.856Z,19.60
2017-07-11T14:19:52.471Z,19.80
2017-07-11T14:22:20.037Z,19.90
2017-07-11T14:24:47.628Z,20.30
2017-07-11T14:27:15.184Z,20.40
2017-07-11T14:29:42.745Z,20.50
2017-07-11T14:32:10.367Z,20.60
2017-07-11T14:34:37.961Z,20.80
2017-07-11T14:37:05.521Z,20.90
2017-07-11T14:39:33.128Z,21.10
2017-07-11T14:42:00.707Z,21.20
2017-07-11T14:44:28.264Z,21.50
2017-07-11T14:46:55.941Z,21.70
2017-07-11T14:49:23.499Z,21.90
2017-07-11T14:51:51.049Z,22.10
2017-07-11T14:54:18.977Z,22.20
2017-07-11T14:56:47.306Z,22.20
2017-07-11T14:59:14.877Z,22.20
2017-07-11T15:01:42.590Z,22.30
2017-07-11T15:04:10.929Z,22.40
2017-07-11T15:06:38.581Z,22.30
2017-07-11T15:09:06.368Z,22.20
2017-07-11T15:11:33.947Z,22.20
2017-07-11T15:14:02.268Z,21.80
2017-07-11T15:16:30.093Z,21.70
2017-07-11T15:18:57.648Z,21.70
2017-07-11T15:21:25.313Z,21.60
2017-07-11T15:23:53.759Z,21.50
2017-07-11T15:26:21.348Z,21.50
2017-07-11T15:28:49.157Z,21.60
2017-07-11T15:31:16.999Z,21.70
2017-07-11T15:33:44.560Z,21.70
2017-07-11T15:36:12.121Z,21.80
2017-07-11T15:38:39.859Z,21.80
2017-07-11T15:41:08.359Z,22.00
2017-07-11T15:43:36.008Z,22.00
2017-07-11T15:46:03.615Z,22.00
2017-07-11T15:48:31.173Z,22.10
2017-07-11T15:50:58.730Z,22.20
2017-07-11T15:53:26.544Z,22.20
2017-07-11T15:55:54.889Z,22.20
2017-07-11T15:58:22.454Z,22.20
2017-07-11T16:00:50.121Z,22.20
2017-07-11T16:03:17.687Z,22.20
2017-07-11T16:05:45.264Z,22.10
2017-07-11T16:08:13.844Z,22.10
2017-07-11T16:10:41.459Z,22.10
2017-07-11T16:13:09.024Z,22.20
2017-07-11T16:15:36.669Z,22.20
2017-07-11T16:18:04.230Z,22.20
2017-07-11T16:20:31.832Z,22.20
2017-07-11T16:22:59.804Z,22.10
2017-07-11T16:25:27.362Z,22.10
2017-07-11T16:27:54.922Z,22.10
2017-07-11T16:30:22.533Z,22.10
2017-07-11T16:32:50.104Z,22.00
2017-07-11T16:35:17.708Z,22.10
2017-07-11T16:37:46.293Z,22.00
2017-07-11T16:40:13.845Z,22.00
2017-07-11T16:42:42.181Z,22.00
2017-07-11T16:45:09.883Z,22.00
2017-07-11T16:47:37.433Z,22.00
2017-07-11T16:50:04.990Z,21.60
2017-07-11T16:52:32.691Z,20.90
2017-07-11T16:55:00.263Z,20.30
2017-07-11T16:57:27.825Z,19.60
2017-07-11T16:59:55.715Z,19.10
2017-07-11T17:02:23.354Z,18.70
2017-07-11T17:04:50.933Z,18.30
2017-07-11T17:07:18.545Z,17.90
2017-07-11T17:09:46.889Z,17.60
2017-07-11T17:12:14.447Z,17.60
2017-07-11T17:14:42.187Z,17.60
2017-07-11T17:17:09.760Z,17.60
2017-07-11T17:19:37.334Z,17.50
2017-07-11T17:22:05.251Z,17.40
2017-07-11T17:24:32.804Z,17.20
2017-07-11T17:27:00.376Z,17.20
2017-07-11T17:29:28.145Z,17.20
2017-07-11T17:31:55.704Z,17.20
2017-07-11T17:34:23.267Z,17.20
2017-07-11T17:36:51.295Z,17.10
2017-07-11T17:39:19.630Z,17.00
2017-07-11T17:41:47.222Z,17.00
2017-07-11T17:44:14.837Z,17.10
2017-07-11T17:46:42.428Z,17.10
2017-07-11T17:49:10.807Z,17.30
2017-07-11T17:51:38.437Z,17.20
2017-07-11T17:54:06.014Z,17.40
2017-07-11T17:56:33.588Z,17.50
2017-07-11T17:59:01.396Z,17.60
2017-07-11T18:01:28.991Z,17.60
2017-07-11T18:03:56.570Z,17.70
2017-07-11T18:06:24.210Z,17.70
2017-07-11T18:08:51.830Z,17.80
2017-07-11T18:11:19.407Z,17.70
2017-07-11T18:13:47.944Z,17.80
2017-07-11T18:16:15.517Z,17.80
2017-07-11T18:18:43.106Z,17.80
2017-07-11T18:21:10.903Z,17.80
2017-07-11T18:23:38.487Z,17.90
2017-07-11T18:26:06.069Z,17.90
2017-07-11T18:28:34.653Z,18.00
2017-07-11T18:31:02.236Z,17.90
2017-07-11T18:33:29.844Z,18.00
2017-07-11T18:35:57.945Z,18.00
2017-07-11T18:38:26.282Z,18.00
2017-07-11T18:40:54.056Z,17.90
2017-07-11T18:43:21.840Z,18.00
2017-07-11T18:45:49.425Z,18.00
2017-07-11T18:48:17.007Z,17.90
2017-07-11T18:50:44.973Z,17.90
2017-07-11T18:53:14.615Z,17.90
2017-07-11T18:55:42.802Z,17.90
2017-07-11T18:58:11.247Z,17.90
2017-07-11T19:00:38.808Z,17.90
2017-07-11T19:03:06.411Z,17.80
2017-07-11T19:05:34.928Z,17.70
2017-07-11T19:08:02.506Z,17.70
2017-07-11T19:10:30.070Z,17.60
2017-07-11T19:12:57.838Z,17.60
2017-07-11T19:15:25.398Z,17.50
2017-07-11T19:17:52.988Z,17.40
2017-07-11T19:20:20.831Z,17.40
2017-07-11T19:22:48.665Z,17.40
2017-07-11T19:25:17.796Z,17.40
2017-07-11T19:27:46.055Z,17.50
2017-07-11T19:30:13.751Z,17.40
2017-07-11T19:32:41.614Z,17.40
2017-07-11T19:35:09.810Z,17.30
2017-07-11T19:37:37.611Z,17.20
2017-07-11T19:40:05.406Z,17.20
2017-07-11T19:42:33.207Z,17.20
2017-07-11T19:45:01.032Z,17.10
2017-07-11T19:47:28.839Z,17.10
2017-07-11T19:49:56.841Z,17.10
2017-07-11T19:52:24.969Z,17.00
2017-07-11T19:54:53.453Z,16.90
2017-07-11T19:57:21.335Z,16.90
2017-07-11T19:59:49.414Z,16.90
2017-07-11T20:02:17.128Z,16.80
2017-07-11T20:04:45.268Z,16.70
2017-07-11T20:07:13.191Z,16.70
2017-07-11T20:09:41.137Z,16.50
2017-07-11T20:12:08.983Z,16.50
2017-07-11T20:14:36.553Z,16.40
2017-07-11T20:17:04.118Z,16.40
2017-07-11T20:19:32.411Z,16.30
2017-07-11T20:22:00.319Z,16.30
2017-07-11T20:24:27.931Z,16.20
2017-07-11T20:26:55.916Z,16.10
2017-07-11T20:29:23.472Z,16.10
2017-07-11T20:31:51.669Z,16.10
2017-07-11T20:34:19.521Z,16.00
2017-07-11T20:36:47.065Z,16.00
2017-07-11T20:39:14.640Z,15.90
2017-07-11T20:41:43.760Z,15.80
2017-07-11T20:44:11.345Z,15.80
2017-07-11T20:46:38.917Z,15.70
2017-07-11T20:49:07.662Z,15.70
2017-07-11T20:51:35.239Z,15.60
2017-07-11T20:54:02.837Z,15.60
2017-07-11T20:56:30.592Z,15.50
2017-07-11T20:58:58.150Z,15.50
2017-07-11T21:01:26.711Z,15.50
2017-07-11T21:03:54.335Z,15.30
2017-07-11T21:06:21.907Z,15.30
2017-07-11T21:08:49.479Z,15.20
2017-07-11T21:11:17.152Z,15.10
2017-07-11T21:13:44.716Z,15.10
2017-07-11T21:16:12.400Z,15.20
2017-07-11T21:18:42.144Z,15.20
2017-07-11T21:21:10.480Z,15.20
2017-07-11T21:23:38.043Z,15.10
2017-07-11T21:26:06.967Z,15.10
2017-07-11T21:28:35.292Z,15.10
2017-07-11T21:31:02.906Z,15.10
2017-07-11T21:33:31.403Z,15.00
2017-07-11T21:35:58.961Z,15.00
2017-07-11T21:38:26.540Z,14.90
2017-07-11T21:40:54.214Z,15.00
2017-07-11T21:43:21.780Z,15.00
2017-07-11T21:45:49.353Z,14.90
2017-07-11T21:48:16.954Z,14.80
2017-07-11T21:50:45.278Z,14.90
2017-07-11T21:53:12.850Z,14.80
2017-07-11T21:55:40.464Z,14.80
2017-07-11T21:58:08.263Z,14.80
2017-07-11T22:00:35.825Z,14.80
2017-07-11T22:03:03.817Z,14.80
2017-07-11T22:05:32.287Z,14.80
2017-07-11T22:07:59.847Z,14.80
2017-07-11T22:10:27.612Z,14.80
2017-07-11T22:12:55.168Z,14.80
2017-07-11T22:15:22.779Z,14.80
2017-07-11T22:17:50.511Z,14.70
2017-07-11T22:20:18.848Z,14.70
2017-07-11T22:22:46.412Z,14.70
2017-07-11T22:25:14.017Z,14.70
2017-07-11T22:27:42.444Z,14.80
2017-07-11T22:30:10.000Z,14.80
2017-07-11T22:32:37.593Z,14.80
2017-07-11T22:35:05.181Z,14.70
2017-07-11T22:37:33.511Z,14.70
2017-07-11T22:40:01.109Z,14.60
2017-07-11T22:42:29.443Z,14.80
2017-07-11T22:44:57.010Z,14.80
2017-07-11T22:47:24.835Z,14.80
2017-07-11T22:49:52.427Z,14.80
2017-07-11T22:52:19.999Z,14.80
2017-07-11T22:54:47.683Z,14.80
2017-07-11T22:57:15.245Z,14.80
2017-07-11T22:59:42.811Z,14.80
2017-07-11T23:02:11.340Z,14.90
2017-07-11T23:04:38.892Z,14.80
2017-07-11T23:07:06.453Z,14.90
2017-07-11T23:09:34.146Z,14.90
2017-07-11T23:12:01.718Z,15.00
2017-07-11T23:14:29.280Z,15.00
2017-07-11T23:16:57.006Z,15.00
2017-07-11T23:19:24.578Z,14.90
2017-07-11T23:21:52.148Z,14.80
2017-07-11T23:24:19.853Z,14.70
2017-07-11T23:26:47.421Z,14.80
2017-07-11T23:29:14.993Z,14.70
2017-07-11T23:31:42.731Z,14.80
2017-07-11T23:34:10.311Z,14.90
2017-07-11T23:36:37.909Z,15.00
2017-07-11T23:39:05.524Z,14.80
2017-07-11T23:41:33.080Z,14.70
2017-07-11T23:44:00.671Z,14.70
2017-07-11T23:46:28.356Z,14.60
2017-07-11T23:48:55.920Z,14.50
2017-07-11T23:51:23.486Z,14.60
2017-07-11T23:53:51.168Z,14.70
2017-07-11T23:56:19.497Z,14.80
2017-07-11T23:58:47.063Z,14.80
